sensor_id;sensor_type;location;lat;lon;timestamp;P1;durP1;ratioP1;P2;durP2;ratioP2
30287;SDS011;17103;48.316;11.558;2022-10-16T00:02:00;2.03;;;1.08;;
30287;SDS011;17103;48.316;11.558;2022-10-16T00:04:26;2.45;;;0.90;;
30287;SDS011;17103;48.316;11.558;2022-10-16T00:06:52;1.85;;;0.90;;
30287;SDS011;17103;48.316;11.558;2022-10-16T00:09:17;1.17;;;0.80;;
30287;SDS011;17103;48.316;11.558;2022-10-16T00:11:43;3.08;;;0.70;;
30287;SDS011;17103;48.316;11.558;2022-10-16T00:14:10;1.80;;;1.20;;
30287;SDS011;17103;48.316;11.558;2022-10-16T00:16:38;3.47;;;1.23;;
30287;SDS011;17103;48.316;11.558;2022-10-16T00:19:04;2.90;;;1.13;;
30287;SDS011;17103;48.316;11.558;2022-10-16T00:21:30;2.58;;;1.25;;
30287;SDS011;17103;48.316;11.558;2022-10-16T00:24:00;1.80;;;1.40;;
30287;SDS011;17103;48.316;11.558;2022-10-16T00:26:29;2.55;;;1.15;;
30287;SDS011;17103;48.316;11.558;2022-10-16T00:28:56;3.00;;;1.23;;
30287;SDS011;17103;48.316;11.558;2022-10-16T00:31:22;1.33;;;1.10;;
30287;SDS011;17103;48.316;11.558;2022-10-16T00:33:49;1.85;;;1.40;;
30287;SDS011;17103;48.316;11.558;2022-10-16T00:36:17;1.35;;;1.10;;
30287;SDS011;17103;48.316;11.558;2022-10-16T00:38:44;3.70;;;1.30;;
30287;SDS011;17103;48.316;11.558;2022-10-16T00:41:10;3.63;;;0.93;;
30287;SDS011;17103;48.316;11.558;2022-10-16T00:46:22;2.10;;;1.45;;
30287;SDS011;17103;48.316;11.558;2022-10-16T00:51:32;2.25;;;1.45;;
30287;SDS011;17103;48.316;11.558;2022-10-16T00:54:00;1.77;;;1.35;;
30287;SDS011;17103;48.316;11.558;2022-10-16T00:56:28;3.53;;;1.60;;
30287;SDS011;17103;48.316;11.558;2022-10-16T00:58:54;2.70;;;1.60;;
30287;SDS011;17103;48.316;11.558;2022-10-16T01:01:20;2.40;;;1.77;;
30287;SDS011;17103;48.316;11.558;2022-10-16T01:03:46;3.50;;;1.73;;
30287;SDS011;17103;48.316;11.558;2022-10-16T01:06:16;2.03;;;1.27;;
30287;SDS011;17103;48.316;11.558;2022-10-16T01:22:29;2.40;;;1.20;;
30287;SDS011;17103;48.316;11.558;2022-10-16T01:28:33;3.17;;;1.10;;
30287;SDS011;17103;48.316;11.558;2022-10-16T01:31:19;1.80;;;0.90;;
30287;SDS011;17103;48.316;11.558;2022-10-16T01:36:39;2.30;;;0.93;;
30287;SDS011;17103;48.316;11.558;2022-10-16T01:39:10;2.30;;;1.13;;
30287;SDS011;17103;48.316;11.558;2022-10-16T01:41:39;1.77;;;0.88;;
30287;SDS011;17103;48.316;11.558;2022-10-16T01:44:14;3.53;;;0.80;;
30287;SDS011;17103;48.316;11.558;2022-10-16T01:46:51;1.35;;;0.77;;
30287;SDS011;17103;48.316;11.558;2022-10-16T01:49:19;2.25;;;1.30;;
30287;SDS011;17103;48.316;11.558;2022-10-16T01:51:48;5.68;;;0.73;;
30287;SDS011;17103;48.316;11.558;2022-10-16T01:54:20;7.57;;;0.90;;
30287;SDS011;17103;48.316;11.558;2022-10-16T01:56:50;2.45;;;0.60;;
30287;SDS011;17103;48.316;11.558;2022-10-16T01:59:17;2.30;;;0.80;;
30287;SDS011;17103;48.316;11.558;2022-10-16T02:01:47;2.85;;;0.70;;
30287;SDS011;17103;48.316;11.558;2022-10-16T02:04:19;0.98;;;0.68;;
30287;SDS011;17103;48.316;11.558;2022-10-16T02:06:49;1.48;;;0.60;;
30287;SDS011;17103;48.316;11.558;2022-10-16T02:09:15;0.95;;;0.50;;
30287;SDS011;17103;48.316;11.558;2022-10-16T02:11:41;1.20;;;0.60;;
30287;SDS011;17103;48.316;11.558;2022-10-16T02:14:08;2.28;;;0.73;;
30287;SDS011;17103;48.316;11.558;2022-10-16T02:19:00;0.57;;;0.38;;
30287;SDS011;17103;48.316;11.558;2022-10-16T02:21:26;0.98;;;0.52;;
30287;SDS011;17103;48.316;11.558;2022-10-16T02:24:15;1.48;;;0.60;;
30287;SDS011;17103;48.316;11.558;2022-10-16T02:27:13;1.98;;;0.60;;
30287;SDS011;17103;48.316;11.558;2022-10-16T02:29:49;3.90;;;0.90;;
30287;SDS011;17103;48.316;11.558;2022-10-16T02:32:23;1.08;;;0.65;;
30287;SDS011;17103;48.316;11.558;2022-10-16T02:34:52;1.55;;;0.70;;
30287;SDS011;17103;48.316;11.558;2022-10-16T02:37:19;2.53;;;0.50;;
30287;SDS011;17103;48.316;11.558;2022-10-16T02:39:46;1.83;;;0.85;;
30287;SDS011;17103;48.316;11.558;2022-10-16T02:42:12;0.80;;;0.50;;
30287;SDS011;17103;48.316;11.558;2022-10-16T02:44:39;2.63;;;0.65;;
30287;SDS011;17103;48.316;11.558;2022-10-16T02:47:05;1.35;;;0.63;;
30287;SDS011;17103;48.316;11.558;2022-10-16T02:49:31;0.80;;;0.52;;
30287;SDS011;17103;48.316;11.558;2022-10-16T02:51:56;1.20;;;0.57;;
30287;SDS011;17103;48.316;11.558;2022-10-16T02:54:22;0.75;;;0.38;;
30287;SDS011;17103;48.316;11.558;2022-10-16T02:56:48;2.88;;;1.23;;
30287;SDS011;17103;48.316;11.558;2022-10-16T02:59:14;1.48;;;0.63;;
30287;SDS011;17103;48.316;11.558;2022-10-16T03:01:40;2.42;;;0.70;;
30287;SDS011;17103;48.316;11.558;2022-10-16T03:04:05;2.08;;;0.77;;
30287;SDS011;17103;48.316;11.558;2022-10-16T03:06:31;2.03;;;0.90;;
30287;SDS011;17103;48.316;11.558;2022-10-16T03:08:56;2.13;;;0.90;;
30287;SDS011;17103;48.316;11.558;2022-10-16T03:11:22;1.35;;;0.90;;
30287;SDS011;17103;48.316;11.558;2022-10-16T03:13:47;1.70;;;0.60;;
30287;SDS011;17103;48.316;11.558;2022-10-16T03:16:13;1.25;;;0.98;;
30287;SDS011;17103;48.316;11.558;2022-10-16T03:18:39;2.00;;;0.77;;
30287;SDS011;17103;48.316;11.558;2022-10-16T03:21:04;1.30;;;0.90;;
30287;SDS011;17103;48.316;11.558;2022-10-16T03:23:30;2.75;;;0.60;;
30287;SDS011;17103;48.316;11.558;2022-10-16T03:25:56;2.45;;;0.90;;
30287;SDS011;17103;48.316;11.558;2022-10-16T03:28:21;1.42;;;0.80;;
30287;SDS011;17103;48.316;11.558;2022-10-16T03:30:47;2.35;;;0.80;;
30287;SDS011;17103;48.316;11.558;2022-10-16T03:33:12;1.80;;;0.90;;
30287;SDS011;17103;48.316;11.558;2022-10-16T03:35:38;1.13;;;0.73;;
30287;SDS011;17103;48.316;11.558;2022-10-16T03:38:04;1.60;;;0.77;;
30287;SDS011;17103;48.316;11.558;2022-10-16T03:40:29;1.65;;;0.80;;
30287;SDS011;17103;48.316;11.558;2022-10-16T03:42:57;3.30;;;1.45;;
30287;SDS011;17103;48.316;11.558;2022-10-16T03:45:23;0.90;;;0.70;;
30287;SDS011;17103;48.316;11.558;2022-10-16T03:47:49;2.22;;;0.90;;
30287;SDS011;17103;48.316;11.558;2022-10-16T03:50:15;1.63;;;1.08;;
30287;SDS011;17103;48.316;11.558;2022-10-16T03:52:41;1.10;;;0.70;;
30287;SDS011;17103;48.316;11.558;2022-10-16T03:55:06;1.10;;;0.70;;
30287;SDS011;17103;48.316;11.558;2022-10-16T03:57:32;1.33;;;0.63;;
30287;SDS011;17103;48.316;11.558;2022-10-16T03:59:58;1.40;;;0.80;;
30287;SDS011;17103;48.316;11.558;2022-10-16T04:02:24;0.88;;;0.70;;
30287;SDS011;17103;48.316;11.558;2022-10-16T04:04:49;1.80;;;0.70;;
30287;SDS011;17103;48.316;11.558;2022-10-16T04:07:15;2.22;;;0.77;;
30287;SDS011;17103;48.316;11.558;2022-10-16T04:09:40;1.23;;;0.70;;
30287;SDS011;17103;48.316;11.558;2022-10-16T04:12:07;0.70;;;0.57;;
30287;SDS011;17103;48.316;11.558;2022-10-16T04:14:32;0.85;;;0.70;;
30287;SDS011;17103;48.316;11.558;2022-10-16T04:16:58;2.25;;;0.60;;
30287;SDS011;17103;48.316;11.558;2022-10-16T04:19:24;2.58;;;0.57;;
30287;SDS011;17103;48.316;11.558;2022-10-16T04:21:50;0.73;;;0.60;;
30287;SDS011;17103;48.316;11.558;2022-10-16T04:24:15;0.85;;;0.47;;
30287;SDS011;17103;48.316;11.558;2022-10-16T04:26:41;2.08;;;0.60;;
30287;SDS011;17103;48.316;11.558;2022-10-16T04:29:07;0.90;;;0.47;;
30287;SDS011;17103;48.316;11.558;2022-10-16T04:31:33;0.80;;;0.60;;
30287;SDS011;17103;48.316;11.558;2022-10-16T04:33:59;0.70;;;0.50;;
30287;SDS011;17103;48.316;11.558;2022-10-16T04:36:24;1.67;;;0.68;;
30287;SDS011;17103;48.316;11.558;2022-10-16T04:38:50;4.50;;;0.88;;
30287;SDS011;17103;48.316;11.558;2022-10-16T04:41:16;0.98;;;0.50;;
30287;SDS011;17103;48.316;11.558;2022-10-16T04:43:41;2.25;;;0.60;;
30287;SDS011;17103;48.316;11.558;2022-10-16T04:46:07;2.65;;;0.52;;
30287;SDS011;17103;48.316;11.558;2022-10-16T04:48:33;1.30;;;0.50;;
30287;SDS011;17103;48.316;11.558;2022-10-16T04:50:59;1.08;;;0.60;;
30287;SDS011;17103;48.316;11.558;2022-10-16T04:53:25;0.75;;;0.40;;
30287;SDS011;17103;48.316;11.558;2022-10-16T04:55:50;0.75;;;0.40;;
30287;SDS011;17103;48.316;11.558;2022-10-16T04:58:16;1.10;;;0.50;;
30287;SDS011;17103;48.316;11.558;2022-10-16T05:00:42;1.42;;;0.55;;
30287;SDS011;17103;48.316;11.558;2022-10-16T05:03:09;0.80;;;0.60;;
30287;SDS011;17103;48.316;11.558;2022-10-16T05:05:35;2.05;;;0.70;;
30287;SDS011;17103;48.316;11.558;2022-10-16T05:08:01;4.75;;;0.57;;
30287;SDS011;17103;48.316;11.558;2022-10-16T05:10:27;3.30;;;0.65;;
30287;SDS011;17103;48.316;11.558;2022-10-16T05:12:53;2.67;;;0.82;;
30287;SDS011;17103;48.316;11.558;2022-10-16T05:15:19;0.95;;;0.50;;
30287;SDS011;17103;48.316;11.558;2022-10-16T05:17:45;1.83;;;0.40;;
30287;SDS011;17103;48.316;11.558;2022-10-16T05:20:11;2.63;;;0.40;;
30287;SDS011;17103;48.316;11.558;2022-10-16T05:22:38;1.00;;;0.50;;
30287;SDS011;17103;48.316;11.558;2022-10-16T05:25:03;0.90;;;0.50;;
30287;SDS011;17103;48.316;11.558;2022-10-16T05:27:30;2.38;;;0.88;;
30287;SDS011;17103;48.316;11.558;2022-10-16T05:29:55;1.70;;;0.65;;
30287;SDS011;17103;48.316;11.558;2022-10-16T05:32:21;1.00;;;0.60;;
30287;SDS011;17103;48.316;11.558;2022-10-16T05:34:46;1.20;;;0.55;;
30287;SDS011;17103;48.316;11.558;2022-10-16T05:37:12;1.65;;;0.65;;
30287;SDS011;17103;48.316;11.558;2022-10-16T05:39:38;1.33;;;0.60;;
30287;SDS011;17103;48.316;11.558;2022-10-16T05:42:04;1.45;;;0.80;;
30287;SDS011;17103;48.316;11.558;2022-10-16T05:44:31;0.60;;;0.55;;
30287;SDS011;17103;48.316;11.558;2022-10-16T05:46:57;1.65;;;0.60;;
30287;SDS011;17103;48.316;11.558;2022-10-16T05:49:22;1.38;;;0.50;;
30287;SDS011;17103;48.316;11.558;2022-10-16T05:51:48;1.05;;;0.50;;
30287;SDS011;17103;48.316;11.558;2022-10-16T05:54:14;2.42;;;0.68;;
30287;SDS011;17103;48.316;11.558;2022-10-16T05:56:40;1.63;;;0.60;;
30287;SDS011;17103;48.316;11.558;2022-10-16T05:59:06;2.25;;;0.32;;
30287;SDS011;17103;48.316;11.558;2022-10-16T06:01:31;0.85;;;0.50;;
30287;SDS011;17103;48.316;11.558;2022-10-16T06:03:58;0.82;;;0.47;;
30287;SDS011;17103;48.316;11.558;2022-10-16T06:06:25;2.10;;;0.50;;
30287;SDS011;17103;48.316;11.558;2022-10-16T06:08:52;1.13;;;0.63;;
30287;SDS011;17103;48.316;11.558;2022-10-16T06:11:21;0.63;;;0.43;;
30287;SDS011;17103;48.316;11.558;2022-10-16T06:13:55;2.60;;;0.80;;
30287;SDS011;17103;48.316;11.558;2022-10-16T06:16:23;1.52;;;0.80;;
30287;SDS011;17103;48.316;11.558;2022-10-16T06:18:53;1.65;;;0.52;;
30287;SDS011;17103;48.316;11.558;2022-10-16T06:21:21;1.65;;;0.77;;
30287;SDS011;17103;48.316;11.558;2022-10-16T06:23:52;1.05;;;0.82;;
30287;SDS011;17103;48.316;11.558;2022-10-16T06:26:20;3.95;;;0.60;;
30287;SDS011;17103;48.316;11.558;2022-10-16T06:28:48;2.17;;;0.65;;
30287;SDS011;17103;48.316;11.558;2022-10-16T06:31:14;1.48;;;0.60;;
30287;SDS011;17103;48.316;11.558;2022-10-16T06:33:41;2.15;;;0.68;;
30287;SDS011;17103;48.316;11.558;2022-10-16T06:36:07;1.80;;;0.70;;
30287;SDS011;17103;48.316;11.558;2022-10-16T06:38:35;1.33;;;0.60;;
30287;SDS011;17103;48.316;11.558;2022-10-16T06:41:02;0.98;;;0.60;;
30287;SDS011;17103;48.316;11.558;2022-10-16T06:43:28;1.65;;;0.50;;
30287;SDS011;17103;48.316;11.558;2022-10-16T06:45:58;1.30;;;0.60;;
30287;SDS011;17103;48.316;11.558;2022-10-16T06:48:25;2.20;;;0.50;;
30287;SDS011;17103;48.316;11.558;2022-10-16T06:51:01;1.08;;;0.80;;
30287;SDS011;17103;48.316;11.558;2022-10-16T06:53:33;3.10;;;1.00;;
30287;SDS011;17103;48.316;11.558;2022-10-16T06:56:06;1.75;;;1.02;;
30287;SDS011;17103;48.316;11.558;2022-10-16T06:58:32;2.75;;;0.90;;
30287;SDS011;17103;48.316;11.558;2022-10-16T07:00:58;1.98;;;0.57;;
30287;SDS011;17103;48.316;11.558;2022-10-16T07:03:23;1.38;;;0.65;;
30287;SDS011;17103;48.316;11.558;2022-10-16T07:05:49;1.30;;;0.63;;
30287;SDS011;17103;48.316;11.558;2022-10-16T07:08:15;1.13;;;0.65;;
30287;SDS011;17103;48.316;11.558;2022-10-16T07:10:40;2.10;;;0.70;;
30287;SDS011;17103;48.316;11.558;2022-10-16T07:13:06;0.93;;;0.60;;
30287;SDS011;17103;48.316;11.558;2022-10-16T07:15:32;1.02;;;0.73;;
30287;SDS011;17103;48.316;11.558;2022-10-16T07:17:58;1.48;;;0.68;;
30287;SDS011;17103;48.316;11.558;2022-10-16T07:20:24;0.75;;;0.47;;
30287;SDS011;17103;48.316;11.558;2022-10-16T07:22:50;1.45;;;0.55;;
30287;SDS011;17103;48.316;11.558;2022-10-16T07:25:16;3.05;;;0.50;;
30287;SDS011;17103;48.316;11.558;2022-10-16T07:27:42;3.33;;;0.40;;
30287;SDS011;17103;48.316;11.558;2022-10-16T07:30:08;1.10;;;0.80;;
30287;SDS011;17103;48.316;11.558;2022-10-16T07:32:33;1.48;;;0.50;;
30287;SDS011;17103;48.316;11.558;2022-10-16T07:34:59;1.98;;;0.50;;
30287;SDS011;17103;48.316;11.558;2022-10-16T07:37:24;0.82;;;0.50;;
30287;SDS011;17103;48.316;11.558;2022-10-16T07:39:50;2.67;;;0.55;;
30287;SDS011;17103;48.316;11.558;2022-10-16T07:42:16;1.40;;;0.57;;
30287;SDS011;17103;48.316;11.558;2022-10-16T07:44:42;2.75;;;0.50;;
30287;SDS011;17103;48.316;11.558;2022-10-16T07:47:08;2.00;;;0.52;;
30287;SDS011;17103;48.316;11.558;2022-10-16T07:49:34;4.10;;;0.57;;
30287;SDS011;17103;48.316;11.558;2022-10-16T07:51:59;1.38;;;0.60;;
30287;SDS011;17103;48.316;11.558;2022-10-16T07:54:25;0.57;;;0.50;;
30287;SDS011;17103;48.316;11.558;2022-10-16T07:56:51;2.88;;;0.88;;
30287;SDS011;17103;48.316;11.558;2022-10-16T07:59:16;1.92;;;0.90;;
30287;SDS011;17103;48.316;11.558;2022-10-16T08:01:42;1.38;;;0.80;;
30287;SDS011;17103;48.316;11.558;2022-10-16T08:04:08;0.82;;;0.70;;
30287;SDS011;17103;48.316;11.558;2022-10-16T08:06:35;0.63;;;0.50;;
30287;SDS011;17103;48.316;11.558;2022-10-16T08:09:02;1.75;;;0.60;;
30287;SDS011;17103;48.316;11.558;2022-10-16T08:11:28;2.50;;;0.95;;
30287;SDS011;17103;48.316;11.558;2022-10-16T08:13:54;1.33;;;0.80;;
30287;SDS011;17103;48.316;11.558;2022-10-16T08:16:20;0.95;;;0.60;;
30287;SDS011;17103;48.316;11.558;2022-10-16T08:18:46;2.85;;;0.77;;
30287;SDS011;17103;48.316;11.558;2022-10-16T08:21:13;2.40;;;1.10;;
30287;SDS011;17103;48.316;11.558;2022-10-16T08:23:40;1.50;;;0.68;;
30287;SDS011;17103;48.316;11.558;2022-10-16T08:26:06;2.35;;;0.70;;
30287;SDS011;17103;48.316;11.558;2022-10-16T08:28:33;4.15;;;0.80;;
30287;SDS011;17103;48.316;11.558;2022-10-16T08:31:12;2.20;;;0.70;;
30287;SDS011;17103;48.316;11.558;2022-10-16T08:33:40;2.70;;;1.13;;
30287;SDS011;17103;48.316;11.558;2022-10-16T08:36:09;4.22;;;1.10;;
30287;SDS011;17103;48.316;11.558;2022-10-16T08:38:35;14.63;;;2.05;;
30287;SDS011;17103;48.316;11.558;2022-10-16T08:41:09;6.97;;;1.13;;
30287;SDS011;17103;48.316;11.558;2022-10-16T08:46:11;1.77;;;1.00;;
30287;SDS011;17103;48.316;11.558;2022-10-16T08:48:51;1.27;;;0.82;;
30287;SDS011;17103;48.316;11.558;2022-10-16T08:51:20;2.10;;;0.97;;
30287;SDS011;17103;48.316;11.558;2022-10-16T08:53:51;1.17;;;0.98;;
30287;SDS011;17103;48.316;11.558;2022-10-16T08:56:22;1.70;;;1.10;;
30287;SDS011;17103;48.316;11.558;2022-10-16T08:58:48;3.63;;;0.95;;
30287;SDS011;17103;48.316;11.558;2022-10-16T09:01:15;2.70;;;1.23;;
30287;SDS011;17103;48.316;11.558;2022-10-16T09:06:17;0.80;;;0.68;;
30287;SDS011;17103;48.316;11.558;2022-10-16T09:20:11;1.08;;;0.90;;
30287;SDS011;17103;48.316;11.558;2022-10-16T09:22:38;2.15;;;1.15;;
30287;SDS011;17103;48.316;11.558;2022-10-16T09:25:10;1.40;;;1.00;;
30287;SDS011;17103;48.316;11.558;2022-10-16T09:27:37;3.00;;;0.88;;
30287;SDS011;17103;48.316;11.558;2022-10-16T09:30:13;4.72;;;0.88;;
30287;SDS011;17103;48.316;11.558;2022-10-16T09:32:40;1.83;;;1.02;;
30287;SDS011;17103;48.316;11.558;2022-10-16T09:35:16;5.68;;;1.17;;
30287;SDS011;17103;48.316;11.558;2022-10-16T09:37:45;1.08;;;0.95;;
30287;SDS011;17103;48.316;11.558;2022-10-16T09:40:31;2.80;;;1.40;;
30287;SDS011;17103;48.316;11.558;2022-10-16T09:43:14;6.15;;;1.20;;
30287;SDS011;17103;48.316;11.558;2022-10-16T09:45:53;2.28;;;1.20;;
30287;SDS011;17103;48.316;11.558;2022-10-16T09:48:24;3.35;;;1.10;;
30287;SDS011;17103;48.316;11.558;2022-10-16T09:50:59;4.03;;;0.85;;
30287;SDS011;17103;48.316;11.558;2022-10-16T09:53:40;1.00;;;0.90;;
30287;SDS011;17103;48.316;11.558;2022-10-16T09:56:11;2.90;;;1.23;;
30287;SDS011;17103;48.316;11.558;2022-10-16T09:58:49;12.77;;;1.80;;
30287;SDS011;17103;48.316;11.558;2022-10-16T10:01:17;2.50;;;1.10;;
30287;SDS011;17103;48.316;11.558;2022-10-16T10:03:44;1.55;;;1.10;;
30287;SDS011;17103;48.316;11.558;2022-10-16T10:11:50;1.38;;;1.13;;
30287;SDS011;17103;48.316;11.558;2022-10-16T10:19:52;2.17;;;1.33;;
30287;SDS011;17103;48.316;11.558;2022-10-16T10:30:23;1.65;;;1.42;;
30287;SDS011;17103;48.316;11.558;2022-10-16T10:33:01;2.75;;;1.30;;
30287;SDS011;17103;48.316;11.558;2022-10-16T10:35:45;1.75;;;1.05;;
30287;SDS011;17103;48.316;11.558;2022-10-16T10:38:49;1.45;;;0.98;;
30287;SDS011;17103;48.316;11.558;2022-10-16T10:54:46;1.17;;;1.00;;
30287;SDS011;17103;48.316;11.558;2022-10-16T11:00:12;1.05;;;0.70;;
30287;SDS011;17103;48.316;11.558;2022-10-16T11:03:26;1.63;;;0.73;;
30287;SDS011;17103;48.316;11.558;2022-10-16T11:06:12;0.70;;;0.50;;
30287;SDS011;17103;48.316;11.558;2022-10-16T11:08:43;1.67;;;0.70;;
30287;SDS011;17103;48.316;11.558;2022-10-16T11:11:23;1.60;;;0.80;;
30287;SDS011;17103;48.316;11.558;2022-10-16T11:16:49;4.72;;;0.60;;
30287;SDS011;17103;48.316;11.558;2022-10-16T11:19:35;1.75;;;0.70;;
30287;SDS011;17103;48.316;11.558;2022-10-16T11:27:50;0.30;;;0.25;;
30287;SDS011;17103;48.316;11.558;2022-10-16T11:30:25;1.02;;;0.47;;
30287;SDS011;17103;48.316;11.558;2022-10-16T11:33:00;2.33;;;0.80;;
30287;SDS011;17103;48.316;11.558;2022-10-16T11:38:16;0.50;;;0.30;;
30287;SDS011;17103;48.316;11.558;2022-10-16T11:41:03;0.85;;;0.65;;
30287;SDS011;17103;48.316;11.558;2022-10-16T11:44:33;2.55;;;0.50;;
30287;SDS011;17103;48.316;11.558;2022-10-16T11:46:42;0.80;;;0.43;;
30287;SDS011;17103;48.316;11.558;2022-10-16T11:49:14;1.17;;;0.55;;
30287;SDS011;17103;48.316;11.558;2022-10-16T11:51:45;1.35;;;0.40;;
30287;SDS011;17103;48.316;11.558;2022-10-16T11:54:22;3.35;;;0.55;;
30287;SDS011;17103;48.316;11.558;2022-10-16T11:56:55;4.00;;;0.52;;
30287;SDS011;17103;48.316;11.558;2022-10-16T12:04:49;0.40;;;0.25;;
30287;SDS011;17103;48.316;11.558;2022-10-16T12:07:26;1.73;;;0.47;;
30287;SDS011;17103;48.316;11.558;2022-10-16T12:09:58;2.28;;;0.40;;
30287;SDS011;17103;48.316;11.558;2022-10-16T12:17:59;0.30;;;0.30;;
30287;SDS011;17103;48.316;11.558;2022-10-16T12:20:26;1.25;;;0.30;;
30287;SDS011;17103;48.316;11.558;2022-10-16T12:23:06;0.60;;;0.40;;
30287;SDS011;17103;48.316;11.558;2022-10-16T12:25:44;2.80;;;0.40;;
30287;SDS011;17103;48.316;11.558;2022-10-16T12:28:20;1.00;;;0.35;;
30287;SDS011;17103;48.316;11.558;2022-10-16T12:30:54;1.85;;;0.45;;
30287;SDS011;17103;48.316;11.558;2022-10-16T12:33:29;0.70;;;0.45;;
30287;SDS011;17103;48.316;11.558;2022-10-16T12:35:57;1.35;;;0.40;;
30287;SDS011;17103;48.316;11.558;2022-10-16T12:38:29;1.75;;;0.40;;
30287;SDS011;17103;48.316;11.558;2022-10-16T12:41:05;1.90;;;0.40;;
30287;SDS011;17103;48.316;11.558;2022-10-16T12:43:40;0.60;;;0.27;;
30287;SDS011;17103;48.316;11.558;2022-10-16T12:48:33;1.13;;;0.30;;
30287;SDS011;17103;48.316;11.558;2022-10-16T12:51:09;0.47;;;0.35;;
30287;SDS011;17103;48.316;11.558;2022-10-16T12:54:00;1.33;;;0.40;;
30287;SDS011;17103;48.316;11.558;2022-10-16T12:56:34;0.93;;;0.38;;
30287;SDS011;17103;48.316;11.558;2022-10-16T13:29:40;0.30;;;0.30;;
30287;SDS011;17103;48.316;11.558;2022-10-16T13:32:07;1.38;;;0.40;;
30287;SDS011;17103;48.316;11.558;2022-10-16T13:34:46;0.73;;;0.50;;
30287;SDS011;17103;48.316;11.558;2022-10-16T13:37:20;0.55;;;0.30;;
30287;SDS011;17103;48.316;11.558;2022-10-16T13:39:47;4.65;;;0.52;;
30287;SDS011;17103;48.316;11.558;2022-10-16T13:42:26;2.40;;;0.30;;
30287;SDS011;17103;48.316;11.558;2022-10-16T13:44:53;0.20;;;0.20;;
30287;SDS011;17103;48.316;11.558;2022-10-16T13:50:01;0.88;;;0.45;;
30287;SDS011;17103;48.316;11.558;2022-10-16T13:52:37;0.60;;;0.30;;
30287;SDS011;17103;48.316;11.558;2022-10-16T13:55:04;0.45;;;0.30;;
30287;SDS011;17103;48.316;11.558;2022-10-16T13:57:39;2.08;;;0.35;;
30287;SDS011;17103;48.316;11.558;2022-10-16T14:00:19;1.45;;;0.20;;
30287;SDS011;17103;48.316;11.558;2022-10-16T14:02:49;0.32;;;0.20;;
30287;SDS011;17103;48.316;11.558;2022-10-16T14:05:22;0.75;;;0.20;;
30287;SDS011;17103;48.316;11.558;2022-10-16T14:07:49;0.20;;;0.20;;
30287;SDS011;17103;48.316;11.558;2022-10-16T14:10:24;1.48;;;0.30;;
30287;SDS011;17103;48.316;11.558;2022-10-16T14:15:45;1.73;;;0.30;;
30287;SDS011;17103;48.316;11.558;2022-10-16T14:18:17;0.45;;;0.30;;
30287;SDS011;17103;48.316;11.558;2022-10-16T14:20:45;0.77;;;0.40;;
30287;SDS011;17103;48.316;11.558;2022-10-16T14:23:22;1.17;;;0.57;;
30287;SDS011;17103;48.316;11.558;2022-10-16T14:28:34;0.32;;;0.30;;
30287;SDS011;17103;48.316;11.558;2022-10-16T14:31:01;1.27;;;0.40;;
30287;SDS011;17103;48.316;11.558;2022-10-16T14:33:44;0.50;;;0.30;;
30287;SDS011;17103;48.316;11.558;2022-10-16T14:38:40;1.85;;;0.40;;
30287;SDS011;17103;48.316;11.558;2022-10-16T14:41:08;0.57;;;0.40;;
30287;SDS011;17103;48.316;11.558;2022-10-16T14:46:15;1.23;;;0.40;;
30287;SDS011;17103;48.316;11.558;2022-10-16T14:48:43;2.97;;;0.30;;
30287;SDS011;17103;48.316;11.558;2022-10-16T14:51:16;0.63;;;0.30;;
30287;SDS011;17103;48.316;11.558;2022-10-16T14:53:43;0.75;;;0.30;;
30287;SDS011;17103;48.316;11.558;2022-10-16T14:56:20;1.02;;;0.40;;
30287;SDS011;17103;48.316;11.558;2022-10-16T14:58:49;0.32;;;0.25;;
30287;SDS011;17103;48.316;11.558;2022-10-16T15:01:16;1.85;;;0.38;;
30287;SDS011;17103;48.316;11.558;2022-10-16T15:03:42;0.30;;;0.30;;
30287;SDS011;17103;48.316;11.558;2022-10-16T15:06:09;0.43;;;0.30;;
30287;SDS011;17103;48.316;11.558;2022-10-16T15:08:37;0.90;;;0.40;;
30287;SDS011;17103;48.316;11.558;2022-10-16T15:11:03;0.90;;;0.30;;
30287;SDS011;17103;48.316;11.558;2022-10-16T15:13:29;1.30;;;0.20;;
30287;SDS011;17103;48.316;11.558;2022-10-16T15:15:55;0.50;;;0.30;;
30287;SDS011;17103;48.316;11.558;2022-10-16T15:18:21;0.70;;;0.35;;
30287;SDS011;17103;48.316;11.558;2022-10-16T15:20:48;3.58;;;0.60;;
30287;SDS011;17103;48.316;11.558;2022-10-16T15:23:15;0.63;;;0.40;;
30287;SDS011;17103;48.316;11.558;2022-10-16T15:25:44;0.30;;;0.20;;
30287;SDS011;17103;48.316;11.558;2022-10-16T15:28:11;0.75;;;0.28;;
30287;SDS011;17103;48.316;11.558;2022-10-16T15:30:39;0.28;;;0.22;;
30287;SDS011;17103;48.316;11.558;2022-10-16T15:33:09;0.40;;;0.30;;
30287;SDS011;17103;48.316;11.558;2022-10-16T15:35:38;0.35;;;0.30;;
30287;SDS011;17103;48.316;11.558;2022-10-16T15:38:04;0.50;;;0.40;;
30287;SDS011;17103;48.316;11.558;2022-10-16T15:40:30;0.57;;;0.30;;
30287;SDS011;17103;48.316;11.558;2022-10-16T15:43:16;1.05;;;0.30;;
30287;SDS011;17103;48.316;11.558;2022-10-16T15:45:41;0.80;;;0.38;;
30287;SDS011;17103;48.316;11.558;2022-10-16T15:48:11;7.28;;;1.08;;
30287;SDS011;17103;48.316;11.558;2022-10-16T15:50:38;1.17;;;0.30;;
30287;SDS011;17103;48.316;11.558;2022-10-16T15:53:04;0.75;;;0.30;;
30287;SDS011;17103;48.316;11.558;2022-10-16T15:55:30;0.57;;;0.35;;
30287;SDS011;17103;48.316;11.558;2022-10-16T15:57:56;4.28;;;0.82;;
30287;SDS011;17103;48.316;11.558;2022-10-16T16:00:22;1.48;;;0.47;;
30287;SDS011;17103;48.316;11.558;2022-10-16T16:02:51;1.02;;;0.55;;
30287;SDS011;17103;48.316;11.558;2022-10-16T16:05:18;2.10;;;0.38;;
30287;SDS011;17103;48.316;11.558;2022-10-16T16:07:44;1.35;;;0.50;;
30287;SDS011;17103;48.316;11.558;2022-10-16T16:10:11;0.60;;;0.30;;
30287;SDS011;17103;48.316;11.558;2022-10-16T16:12:37;0.68;;;0.40;;
30287;SDS011;17103;48.316;11.558;2022-10-16T16:15:06;0.88;;;0.30;;
30287;SDS011;17103;48.316;11.558;2022-10-16T16:17:33;5.13;;;0.70;;
30287;SDS011;17103;48.316;11.558;2022-10-16T16:20:00;0.65;;;0.30;;
30287;SDS011;17103;48.316;11.558;2022-10-16T16:22:26;1.15;;;0.40;;
30287;SDS011;17103;48.316;11.558;2022-10-16T16:24:52;1.75;;;0.52;;
30287;SDS011;17103;48.316;11.558;2022-10-16T16:27:18;1.25;;;0.57;;
30287;SDS011;17103;48.316;11.558;2022-10-16T16:29:45;1.60;;;0.40;;
30287;SDS011;17103;48.316;11.558;2022-10-16T16:32:11;0.90;;;0.40;;
30287;SDS011;17103;48.316;11.558;2022-10-16T16:34:37;1.23;;;0.55;;
30287;SDS011;17103;48.316;11.558;2022-10-16T16:37:03;1.45;;;0.40;;
30287;SDS011;17103;48.316;11.558;2022-10-16T16:39:28;3.50;;;0.70;;
30287;SDS011;17103;48.316;11.558;2022-10-16T16:41:57;1.85;;;0.50;;
30287;SDS011;17103;48.316;11.558;2022-10-16T16:44:27;1.58;;;0.68;;
30287;SDS011;17103;48.316;11.558;2022-10-16T16:46:53;0.68;;;0.50;;
30287;SDS011;17103;48.316;11.558;2022-10-16T16:49:19;3.42;;;0.50;;
30287;SDS011;17103;48.316;11.558;2022-10-16T16:51:45;5.63;;;0.65;;
30287;SDS011;17103;48.316;11.558;2022-10-16T16:54:11;3.05;;;0.47;;
30287;SDS011;17103;48.316;11.558;2022-10-16T16:56:38;1.20;;;0.40;;
30287;SDS011;17103;48.316;11.558;2022-10-16T16:59:04;2.67;;;0.40;;
30287;SDS011;17103;48.316;11.558;2022-10-16T17:01:31;0.70;;;0.50;;
30287;SDS011;17103;48.316;11.558;2022-10-16T17:03:57;1.23;;;0.60;;
30287;SDS011;17103;48.316;11.558;2022-10-16T17:06:25;1.15;;;0.68;;
30287;SDS011;17103;48.316;11.558;2022-10-16T17:08:54;2.22;;;0.43;;
30287;SDS011;17103;48.316;11.558;2022-10-16T17:11:21;2.60;;;0.88;;
30287;SDS011;17103;48.316;11.558;2022-10-16T17:13:49;1.83;;;0.80;;